SIA412 PTRO-PTPN
Flight info
| Callsign | SIA412 |
|---|---|
| Flight time | 3h 7m |
| Altitude | 41000 |
| Route | ROR 08N139E 08N145E EWILS PNI |
| Aircraft | A359/H-SDE2E3GHIJ3J4J5LM1ORWXY/LB1D1 |
Departure
| Time | 2026-04-30 05:22 |
|---|---|
| Airport | Roman Tmetuchl International Airport (PTRO) |
Arrival
| Time | 2026-04-30 08:29 |
|---|---|
| Airport | Pohnpei International Airport (PTPN) |
| Time | Latitude | Longitude | Altitude | Speed | Heading |
|---|---|---|---|---|---|
| 2026-04-30 05:11 | 7.36917 | 134.53741 | 179 ft | 0 kts | 4° |
| 2026-04-30 05:16 | 7.36916 | 134.53741 | 179 ft | 2 kts | 2° |
| 2026-04-30 05:17 | 7.36902 | 134.53742 | 179 ft | 2 kts | 332° |
| 2026-04-30 05:17 | 7.36891 | 134.53750 | 179 ft | 2 kts | 302° |
| 2026-04-30 05:17 | 7.36886 | 134.53759 | 179 ft | 0 kts | 279° |
| 2026-04-30 05:19 | 7.36889 | 134.53727 | 179 ft | 9 kts | 272° |
| 2026-04-30 05:19 | 7.36886 | 134.53656 | 179 ft | 11 kts | 263° |
| 2026-04-30 05:19 | 7.36867 | 134.53576 | 179 ft | 11 kts | 242° |
| 2026-04-30 05:19 | 7.36826 | 134.53553 | 179 ft | 5 kts | 190° |
| 2026-04-30 05:20 | 7.36779 | 134.53543 | 178 ft | 8 kts | 198° |
| 2026-04-30 05:20 | 7.36738 | 134.53511 | 178 ft | 7 kts | 240° |
| 2026-04-30 05:20 | 7.36725 | 134.53470 | 179 ft | 4 kts | 266° |
| 2026-04-30 05:20 | 7.36732 | 134.53464 | 179 ft | 1 kts | 316° |
| 2026-04-30 05:21 | 7.36740 | 134.53465 | 179 ft | 2 kts | 1° |
| 2026-04-30 05:21 | 7.36745 | 134.53473 | 179 ft | 1 kts | 53° |
| 2026-04-30 05:21 | 7.36746 | 134.53482 | 179 ft | 1 kts | 85° |
| 2026-04-30 05:21 | 7.36746 | 134.53483 | 179 ft | 0 kts | 86° |
| 2026-04-30 05:22 | 7.36750 | 134.53557 | 178 ft | 45 kts | 89° |
| 2026-04-30 05:22 | 7.36733 | 134.54201 | 179 ft | 137 kts | 91° |
| 2026-04-30 05:22 | 7.36721 | 134.55326 | 848 ft | 155 kts | 91° |
| 2026-04-30 05:23 | 7.36736 | 134.56355 | 2106 ft | 150 kts | 90° |
| 2026-04-30 05:23 | 7.36763 | 134.57370 | 2677 ft | 147 kts | 90° |
| 2026-04-30 05:23 | 7.36797 | 134.58451 | 2854 ft | 164 kts | 90° |
| 2026-04-30 05:23 | 7.36917 | 134.59665 | 3015 ft | 184 kts | 84° |
| 2026-04-30 05:24 | 7.37089 | 134.61015 | 3148 ft | 206 kts | 85° |
| 2026-04-30 05:24 | 7.37289 | 134.62525 | 3306 ft | 228 kts | 83° |
| 2026-04-30 05:24 | 7.37522 | 134.64177 | 3500 ft | 247 kts | 83° |
| 2026-04-30 05:24 | 7.37780 | 134.65927 | 3955 ft | 256 kts | 83° |
| 2026-04-30 05:25 | 7.38044 | 134.67685 | 4486 ft | 260 kts | 83° |
| 2026-04-30 05:25 | 7.38318 | 134.69494 | 5059 ft | 262 kts | 83° |
| 2026-04-30 05:25 | 7.38593 | 134.71313 | 5652 ft | 264 kts | 83° |
| 2026-04-30 05:25 | 7.38869 | 134.73154 | 6192 ft | 268 kts | 83° |
| 2026-04-30 05:26 | 7.39146 | 134.75013 | 6762 ft | 269 kts | 83° |
| 2026-04-30 05:26 | 7.39424 | 134.76885 | 7283 ft | 272 kts | 83° |
| 2026-04-30 05:26 | 7.39705 | 134.78776 | 7805 ft | 274 kts | 83° |
| 2026-04-30 05:26 | 7.39987 | 134.80681 | 8365 ft | 275 kts | 83° |
| 2026-04-30 05:27 | 7.40267 | 134.82577 | 8853 ft | 279 kts | 82° |
| 2026-04-30 05:27 | 7.40555 | 134.84525 | 9381 ft | 282 kts | 83° |
| 2026-04-30 05:27 | 7.40845 | 134.86482 | 9914 ft | 284 kts | 82° |
| 2026-04-30 05:27 | 7.41141 | 134.88485 | 10209 ft | 295 kts | 82° |
| 2026-04-30 05:28 | 7.41450 | 134.90576 | 10391 ft | 309 kts | 82° |
| 2026-04-30 05:28 | 7.41772 | 134.92761 | 10578 ft | 322 kts | 82° |
| 2026-04-30 05:28 | 7.42107 | 134.95029 | 10764 ft | 334 kts | 82° |
| 2026-04-30 05:28 | 7.42456 | 134.97384 | 10933 ft | 345 kts | 82° |
| 2026-04-30 05:29 | 7.42814 | 134.99809 | 11112 ft | 355 kts | 82° |
| 2026-04-30 05:29 | 7.43180 | 135.02283 | 11419 ft | 360 kts | 82° |
| 2026-04-30 05:29 | 7.43545 | 135.04755 | 11736 ft | 363 kts | 82° |
| 2026-04-30 05:29 | 7.43918 | 135.07277 | 12155 ft | 364 kts | 82° |
| 2026-04-30 05:30 | 7.44292 | 135.09807 | 12520 ft | 367 kts | 82° |
| 2026-04-30 05:30 | 7.44669 | 135.12365 | 12846 ft | 370 kts | 82° |
| 2026-04-30 05:30 | 7.45048 | 135.14930 | 13248 ft | 371 kts | 82° |
| 2026-04-30 05:30 | 7.45428 | 135.17512 | 13584 ft | 374 kts | 82° |
| 2026-04-30 05:31 | 7.45810 | 135.20105 | 13894 ft | 376 kts | 82° |
| 2026-04-30 05:31 | 7.46194 | 135.22713 | 14233 ft | 377 kts | 82° |
| 2026-04-30 05:31 | 7.46580 | 135.25337 | 14488 ft | 380 kts | 82° |
| 2026-04-30 05:31 | 7.46968 | 135.27976 | 14839 ft | 381 kts | 82° |
| 2026-04-30 05:32 | 7.47351 | 135.30584 | 15168 ft | 382 kts | 82° |
| 2026-04-30 05:32 | 7.47743 | 135.33249 | 15442 ft | 386 kts | 82° |
| 2026-04-30 05:32 | 7.48135 | 135.35923 | 15804 ft | 386 kts | 82° |
| 2026-04-30 05:32 | 7.48529 | 135.38607 | 16094 ft | 389 kts | 82° |
| 2026-04-30 05:33 | 7.48926 | 135.41311 | 16410 ft | 391 kts | 82° |
| 2026-04-30 05:33 | 7.49324 | 135.44021 | 16758 ft | 392 kts | 82° |
| 2026-04-30 05:33 | 7.49724 | 135.46750 | 16993 ft | 396 kts | 82° |
| 2026-04-30 05:33 | 7.50126 | 135.49495 | 17336 ft | 396 kts | 82° |
| 2026-04-30 05:34 | 7.50529 | 135.52247 | 17647 ft | 398 kts | 82° |
| 2026-04-30 05:34 | 7.50929 | 135.54979 | 17907 ft | 401 kts | 82° |
| 2026-04-30 05:34 | 7.51336 | 135.57758 | 18243 ft | 401 kts | 82° |
| 2026-04-30 05:34 | 7.51744 | 135.60551 | 18463 ft | 405 kts | 82° |
| 2026-04-30 05:35 | 7.52155 | 135.63361 | 18734 ft | 405 kts | 82° |
| 2026-04-30 05:35 | 7.52566 | 135.66171 | 19001 ft | 407 kts | 82° |
| 2026-04-30 05:35 | 7.52980 | 135.69001 | 19204 ft | 409 kts | 82° |
| 2026-04-30 05:35 | 7.53394 | 135.71840 | 19503 ft | 410 kts | 82° |
| 2026-04-30 05:36 | 7.53804 | 135.74650 | 19705 ft | 413 kts | 82° |
| 2026-04-30 05:36 | 7.54223 | 135.77518 | 19987 ft | 413 kts | 82° |
| 2026-04-30 05:36 | 7.54641 | 135.80389 | 20232 ft | 415 kts | 82° |
| 2026-04-30 05:36 | 7.55061 | 135.83273 | 20451 ft | 417 kts | 82° |
| 2026-04-30 05:37 | 7.55483 | 135.86165 | 20732 ft | 418 kts | 82° |
| 2026-04-30 05:37 | 7.55906 | 135.89071 | 20933 ft | 420 kts | 82° |
| 2026-04-30 05:37 | 7.56331 | 135.91987 | 21174 ft | 421 kts | 82° |
| 2026-04-30 05:37 | 7.56756 | 135.94910 | 21422 ft | 423 kts | 82° |
| 2026-04-30 05:38 | 7.57184 | 135.97857 | 21641 ft | 425 kts | 82° |
| 2026-04-30 05:38 | 7.57607 | 136.00763 | 21878 ft | 426 kts | 82° |
| 2026-04-30 05:38 | 7.58037 | 136.03726 | 22071 ft | 429 kts | 82° |
| 2026-04-30 05:38 | 7.58469 | 136.06699 | 22320 ft | 429 kts | 82° |
| 2026-04-30 05:39 | 7.58901 | 136.09679 | 22534 ft | 431 kts | 82° |
| 2026-04-30 05:39 | 7.59336 | 136.12674 | 22736 ft | 433 kts | 82° |
| 2026-04-30 05:39 | 7.59772 | 136.15680 | 22981 ft | 434 kts | 82° |
| 2026-04-30 05:39 | 7.60208 | 136.18691 | 23153 ft | 436 kts | 82° |
| 2026-04-30 05:40 | 7.60647 | 136.21721 | 23402 ft | 437 kts | 82° |
| 2026-04-30 05:40 | 7.61086 | 136.24753 | 23560 ft | 439 kts | 82° |
| 2026-04-30 05:40 | 7.61520 | 136.27757 | 23736 ft | 440 kts | 82° |
| 2026-04-30 05:40 | 7.61962 | 136.30808 | 23934 ft | 440 kts | 82° |
| 2026-04-30 05:41 | 7.62404 | 136.33865 | 24092 ft | 442 kts | 82° |
| 2026-04-30 05:41 | 7.62847 | 136.36933 | 24291 ft | 442 kts | 82° |
| 2026-04-30 05:41 | 7.63291 | 136.40007 | 24423 ft | 445 kts | 82° |
| 2026-04-30 05:41 | 7.63736 | 136.43096 | 24631 ft | 445 kts | 82° |
| 2026-04-30 05:42 | 7.64182 | 136.46186 | 24795 ft | 446 kts | 82° |
| 2026-04-30 05:42 | 7.64630 | 136.49287 | 24962 ft | 448 kts | 82° |
| 2026-04-30 05:42 | 7.65071 | 136.52351 | 25153 ft | 448 kts | 82° |
| 2026-04-30 05:42 | 7.65520 | 136.55467 | 25313 ft | 450 kts | 82° |
| 2026-04-30 05:43 | 7.65969 | 136.58587 | 25494 ft | 451 kts | 82° |
| 2026-04-30 05:43 | 7.66420 | 136.61719 | 25642 ft | 453 kts | 82° |
| 2026-04-30 05:43 | 7.66872 | 136.64864 | 25834 ft | 453 kts | 82° |
| 2026-04-30 05:43 | 7.67324 | 136.68009 | 26002 ft | 454 kts | 82° |
| 2026-04-30 05:44 | 7.67778 | 136.71171 | 26180 ft | 456 kts | 82° |
| 2026-04-30 05:44 | 7.68232 | 136.74335 | 26380 ft | 456 kts | 82° |
| 2026-04-30 05:44 | 7.68687 | 136.77506 | 26550 ft | 458 kts | 82° |
| 2026-04-30 05:44 | 7.69144 | 136.80687 | 26735 ft | 459 kts | 82° |
| 2026-04-30 05:45 | 7.69601 | 136.83878 | 26896 ft | 461 kts | 82° |
| 2026-04-30 05:45 | 7.70060 | 136.87084 | 27083 ft | 462 kts | 82° |
| 2026-04-30 05:45 | 7.70520 | 136.90291 | 27286 ft | 463 kts | 82° |
| 2026-04-30 05:45 | 7.70974 | 136.93466 | 27463 ft | 464 kts | 82° |
| 2026-04-30 05:46 | 7.71435 | 136.96692 | 27664 ft | 465 kts | 82° |
| 2026-04-30 05:46 | 7.71898 | 136.99927 | 27839 ft | 467 kts | 82° |
| 2026-04-30 05:46 | 7.72362 | 137.03172 | 28055 ft | 468 kts | 82° |
| 2026-04-30 05:46 | 7.72826 | 137.06426 | 28213 ft | 470 kts | 82° |
| 2026-04-30 05:47 | 7.73293 | 137.09698 | 28425 ft | 471 kts | 82° |
| 2026-04-30 05:47 | 7.73760 | 137.12969 | 28604 ft | 473 kts | 82° |
| 2026-04-30 05:47 | 7.74231 | 137.16272 | 28802 ft | 473 kts | 82° |
| 2026-04-30 05:47 | 7.74699 | 137.19559 | 28985 ft | 475 kts | 82° |
| 2026-04-30 05:48 | 7.75170 | 137.22864 | 29158 ft | 476 kts | 82° |
| 2026-04-30 05:48 | 7.75641 | 137.26174 | 29362 ft | 478 kts | 82° |
| 2026-04-30 05:48 | 7.76108 | 137.29456 | 29525 ft | 479 kts | 82° |
| 2026-04-30 05:48 | 7.76582 | 137.32792 | 29738 ft | 480 kts | 82° |
| 2026-04-30 05:49 | 7.77057 | 137.36134 | 29895 ft | 482 kts | 82° |
| 2026-04-30 05:49 | 7.77534 | 137.39491 | 30089 ft | 483 kts | 82° |
| 2026-04-30 05:49 | 7.78011 | 137.42858 | 30215 ft | 485 kts | 82° |
| 2026-04-30 05:49 | 7.78490 | 137.46236 | 30400 ft | 486 kts | 82° |
| 2026-04-30 05:50 | 7.78963 | 137.49569 | 30544 ft | 487 kts | 82° |
| 2026-04-30 05:50 | 7.79442 | 137.52954 | 30718 ft | 488 kts | 82° |
| 2026-04-30 05:50 | 7.79923 | 137.56349 | 30899 ft | 489 kts | 82° |
| 2026-04-30 05:50 | 7.80405 | 137.59754 | 31057 ft | 491 kts | 82° |
| 2026-04-30 05:51 | 7.80886 | 137.63159 | 31215 ft | 492 kts | 82° |
| 2026-04-30 05:51 | 7.81370 | 137.66585 | 31368 ft | 493 kts | 82° |
| 2026-04-30 05:51 | 7.81855 | 137.70012 | 31550 ft | 494 kts | 82° |
| 2026-04-30 05:51 | 7.82340 | 137.73454 | 31684 ft | 496 kts | 82° |
| 2026-04-30 05:52 | 7.82826 | 137.76897 | 31846 ft | 496 kts | 82° |
| 2026-04-30 05:52 | 7.83312 | 137.80343 | 31974 ft | 498 kts | 82° |
| 2026-04-30 05:52 | 7.83800 | 137.83804 | 32127 ft | 498 kts | 82° |
| 2026-04-30 05:52 | 7.84289 | 137.87278 | 32238 ft | 500 kts | 82° |
| 2026-04-30 05:53 | 7.84772 | 137.90709 | 32409 ft | 500 kts | 82° |
| 2026-04-30 05:53 | 7.85261 | 137.94182 | 32582 ft | 500 kts | 82° |
| 2026-04-30 05:53 | 7.85750 | 137.97660 | 32792 ft | 499 kts | 82° |
| 2026-04-30 05:53 | 7.86236 | 138.01122 | 33017 ft | 499 kts | 82° |
| 2026-04-30 05:54 | 7.86723 | 138.04589 | 33201 ft | 499 kts | 82° |
| 2026-04-30 05:54 | 7.87209 | 138.08052 | 33421 ft | 498 kts | 82° |
| 2026-04-30 05:54 | 7.87695 | 138.11517 | 33620 ft | 498 kts | 82° |
| 2026-04-30 05:54 | 7.88178 | 138.14968 | 33876 ft | 497 kts | 82° |
| 2026-04-30 05:55 | 7.88656 | 138.18375 | 34056 ft | 497 kts | 82° |
| 2026-04-30 05:55 | 7.89138 | 138.21823 | 34269 ft | 496 kts | 82° |
| 2026-04-30 05:55 | 7.89619 | 138.25260 | 34489 ft | 495 kts | 82° |
| 2026-04-30 05:55 | 7.90100 | 138.28701 | 34750 ft | 493 kts | 82° |
| 2026-04-30 05:56 | 7.90579 | 138.32131 | 34984 ft | 493 kts | 82° |
| 2026-04-30 05:56 | 7.91057 | 138.35551 | 35225 ft | 492 kts | 82° |
| 2026-04-30 05:56 | 7.91534 | 138.38967 | 35471 ft | 491 kts | 83° |
| 2026-04-30 05:56 | 7.92010 | 138.42382 | 35726 ft | 490 kts | 83° |
| 2026-04-30 05:57 | 7.92484 | 138.45781 | 35986 ft | 489 kts | 83° |
| 2026-04-30 05:57 | 7.92957 | 138.49180 | 36233 ft | 489 kts | 83° |
| 2026-04-30 05:57 | 7.93430 | 138.52576 | 36483 ft | 488 kts | 83° |
| 2026-04-30 05:57 | 7.93903 | 138.55973 | 36725 ft | 488 kts | 83° |
| 2026-04-30 05:58 | 7.94367 | 138.59310 | 36972 ft | 487 kts | 83° |
| 2026-04-30 05:58 | 7.94838 | 138.62698 | 37216 ft | 487 kts | 83° |
| 2026-04-30 05:58 | 7.95306 | 138.66074 | 37456 ft | 486 kts | 83° |
| 2026-04-30 05:58 | 7.95775 | 138.69452 | 37694 ft | 486 kts | 83° |
| 2026-04-30 05:59 | 7.96244 | 138.72830 | 37945 ft | 485 kts | 83° |
| 2026-04-30 05:59 | 7.96712 | 138.76203 | 38191 ft | 485 kts | 83° |
| 2026-04-30 05:59 | 7.97178 | 138.79568 | 38432 ft | 484 kts | 83° |
| 2026-04-30 05:59 | 7.97642 | 138.82923 | 38639 ft | 483 kts | 83° |
| 2026-04-30 06:00 | 7.98107 | 138.86282 | 38841 ft | 483 kts | 83° |
| 2026-04-30 06:00 | 7.98572 | 138.89639 | 38996 ft | 483 kts | 83° |
| 2026-04-30 06:00 | 7.99037 | 138.93000 | 39159 ft | 483 kts | 83° |
| 2026-04-30 06:00 | 7.99495 | 138.96319 | 39339 ft | 483 kts | 83° |
| 2026-04-30 06:01 | 7.99879 | 138.99680 | 39509 ft | 482 kts | 88° |
| 2026-04-30 06:01 | 8.00001 | 139.03046 | 39692 ft | 480 kts | 89° |
| 2026-04-30 06:01 | 8.00064 | 139.06417 | 39851 ft | 480 kts | 90° |
| 2026-04-30 06:01 | 8.00099 | 139.09793 | 40013 ft | 479 kts | 91° |
| 2026-04-30 06:02 | 8.00119 | 139.13156 | 40174 ft | 479 kts | 91° |
| 2026-04-30 06:02 | 8.00134 | 139.16526 | 40292 ft | 480 kts | 91° |
| 2026-04-30 06:02 | 8.00149 | 139.19891 | 40472 ft | 479 kts | 91° |
| 2026-04-30 06:02 | 8.00166 | 139.23251 | 40604 ft | 479 kts | 91° |
| 2026-04-30 06:03 | 8.00185 | 139.26607 | 40774 ft | 478 kts | 90° |
| 2026-04-30 06:03 | 8.00206 | 139.29961 | 40863 ft | 478 kts | 90° |
| 2026-04-30 06:03 | 8.00249 | 139.36627 | 40862 ft | 477 kts | 90° |
| 2026-04-30 06:04 | 8.00292 | 139.43324 | 40864 ft | 477 kts | 91° |
| 2026-04-30 06:05 | 8.00353 | 139.53374 | 40864 ft | 477 kts | 90° |
| 2026-04-30 06:05 | 8.00392 | 139.60068 | 40864 ft | 477 kts | 90° |
| 2026-04-30 06:06 | 8.00430 | 139.66763 | 40863 ft | 477 kts | 90° |
| 2026-04-30 06:06 | 8.00467 | 139.73420 | 40864 ft | 477 kts | 91° |
| 2026-04-30 06:07 | 8.00503 | 139.80110 | 40865 ft | 477 kts | 90° |
| 2026-04-30 06:07 | 8.00538 | 139.86798 | 40866 ft | 477 kts | 91° |
| 2026-04-30 06:08 | 8.00571 | 139.93494 | 40861 ft | 477 kts | 90° |
| 2026-04-30 06:08 | 8.00604 | 140.00194 | 40867 ft | 477 kts | 91° |
| 2026-04-30 06:09 | 8.00631 | 140.05768 | 40867 ft | 479 kts | 91° |
| 2026-04-30 06:09 | 8.00662 | 140.12498 | 40871 ft | 479 kts | 91° |
| 2026-04-30 06:10 | 8.00692 | 140.19222 | 40867 ft | 479 kts | 91° |
| 2026-04-30 06:10 | 8.00720 | 140.25951 | 40870 ft | 479 kts | 91° |
| 2026-04-30 06:11 | 8.00748 | 140.32634 | 40870 ft | 479 kts | 91° |
| 2026-04-30 06:11 | 8.00774 | 140.39374 | 40868 ft | 479 kts | 91° |
| 2026-04-30 06:12 | 8.00800 | 140.46104 | 40866 ft | 480 kts | 90° |
| 2026-04-30 06:12 | 8.00824 | 140.52834 | 40867 ft | 480 kts | 91° |
| 2026-04-30 06:13 | 8.00847 | 140.59547 | 40865 ft | 480 kts | 91° |
| 2026-04-30 06:13 | 8.00869 | 140.66284 | 40877 ft | 480 kts | 91° |
| 2026-04-30 06:14 | 8.00890 | 140.73018 | 40866 ft | 480 kts | 90° |
| 2026-04-30 06:14 | 8.00911 | 140.79748 | 40866 ft | 479 kts | 90° |
| 2026-04-30 06:15 | 8.00930 | 140.86481 | 40870 ft | 479 kts | 91° |
| 2026-04-30 06:15 | 8.00948 | 140.93222 | 40869 ft | 481 kts | 90° |
| 2026-04-30 06:16 | 8.00964 | 140.99941 | 40868 ft | 482 kts | 91° |
| 2026-04-30 06:16 | 8.00980 | 141.06706 | 40877 ft | 481 kts | 90° |
| 2026-04-30 06:17 | 8.00995 | 141.13468 | 40879 ft | 481 kts | 90° |
| 2026-04-30 06:17 | 8.01009 | 141.20176 | 40873 ft | 479 kts | 90° |
| 2026-04-30 06:18 | 8.01021 | 141.26894 | 40877 ft | 478 kts | 91° |
| 2026-04-30 06:18 | 8.01032 | 141.33558 | 40871 ft | 478 kts | 90° |
| 2026-04-30 06:19 | 8.01042 | 141.40275 | 40873 ft | 479 kts | 91° |
| 2026-04-30 06:19 | 8.01051 | 141.47004 | 40872 ft | 479 kts | 90° |
| 2026-04-30 06:20 | 8.01059 | 141.53724 | 40874 ft | 478 kts | 90° |
| 2026-04-30 06:20 | 8.01066 | 141.60436 | 40870 ft | 478 kts | 90° |
| 2026-04-30 06:21 | 8.01072 | 141.67148 | 40870 ft | 478 kts | 90° |
| 2026-04-30 06:21 | 8.01077 | 141.73826 | 40868 ft | 478 kts | 90° |
| 2026-04-30 06:22 | 8.01081 | 141.80543 | 40869 ft | 478 kts | 91° |
| 2026-04-30 06:22 | 8.01083 | 141.87256 | 40877 ft | 480 kts | 90° |
| 2026-04-30 06:23 | 8.01085 | 141.94014 | 40875 ft | 481 kts | 90° |
| 2026-04-30 06:23 | 8.01085 | 142.00755 | 40868 ft | 481 kts | 90° |
| 2026-04-30 06:24 | 8.01085 | 142.07460 | 40867 ft | 480 kts | 90° |
| 2026-04-30 06:24 | 8.01083 | 142.14194 | 40868 ft | 479 kts | 90° |
| 2026-04-30 06:25 | 8.01080 | 142.20917 | 40867 ft | 479 kts | 90° |
| 2026-04-30 06:25 | 8.01076 | 142.27648 | 40870 ft | 479 kts | 91° |
| 2026-04-30 06:26 | 8.01071 | 142.34380 | 40873 ft | 480 kts | 90° |
| 2026-04-30 06:26 | 8.01065 | 142.41078 | 40871 ft | 480 kts | 91° |
| 2026-04-30 06:27 | 8.01058 | 142.47817 | 40868 ft | 480 kts | 90° |
| 2026-04-30 06:27 | 8.01050 | 142.54548 | 40869 ft | 480 kts | 91° |
| 2026-04-30 06:28 | 8.01040 | 142.61318 | 40869 ft | 482 kts | 90° |
| 2026-04-30 06:28 | 8.01029 | 142.68046 | 40870 ft | 483 kts | 91° |
| 2026-04-30 06:29 | 8.01017 | 142.74820 | 40866 ft | 483 kts | 91° |
| 2026-04-30 06:29 | 8.01004 | 142.81616 | 40870 ft | 484 kts | 90° |
| 2026-04-30 06:30 | 8.00990 | 142.88405 | 40870 ft | 484 kts | 90° |
| 2026-04-30 06:30 | 8.00975 | 142.95201 | 40870 ft | 484 kts | 90° |
| 2026-04-30 06:31 | 8.00959 | 143.01990 | 40872 ft | 484 kts | 90° |
| 2026-04-30 06:31 | 8.00942 | 143.08788 | 40870 ft | 484 kts | 90° |
| 2026-04-30 06:32 | 8.00924 | 143.15587 | 40877 ft | 485 kts | 90° |
| 2026-04-30 06:32 | 8.00904 | 143.22349 | 40872 ft | 484 kts | 90° |
| 2026-04-30 06:33 | 8.00883 | 143.29186 | 40874 ft | 485 kts | 90° |
| 2026-04-30 06:33 | 8.00862 | 143.35953 | 40867 ft | 486 kts | 90° |
| 2026-04-30 06:34 | 8.00839 | 143.42772 | 40876 ft | 486 kts | 90° |
| 2026-04-30 06:34 | 8.00815 | 143.49587 | 40873 ft | 486 kts | 90° |
| 2026-04-30 06:35 | 8.00790 | 143.56408 | 40866 ft | 486 kts | 90° |
| 2026-04-30 06:35 | 8.00764 | 143.63242 | 40871 ft | 487 kts | 90° |
| 2026-04-30 06:36 | 8.00736 | 143.70076 | 40876 ft | 487 kts | 90° |
| 2026-04-30 06:36 | 8.00708 | 143.76908 | 40875 ft | 487 kts | 90° |
| 2026-04-30 06:37 | 8.00678 | 143.83742 | 40867 ft | 487 kts | 90° |
| 2026-04-30 06:37 | 8.00647 | 143.90592 | 40868 ft | 488 kts | 90° |
| 2026-04-30 06:38 | 8.00615 | 143.97436 | 40866 ft | 488 kts | 90° |
| 2026-04-30 06:38 | 8.00582 | 144.04234 | 40872 ft | 488 kts | 90° |
| 2026-04-30 06:39 | 8.00548 | 144.11094 | 40875 ft | 488 kts | 90° |
| 2026-04-30 06:39 | 8.00513 | 144.17936 | 40862 ft | 488 kts | 90° |
| 2026-04-30 06:40 | 8.00476 | 144.24780 | 40872 ft | 488 kts | 90° |
| 2026-04-30 06:40 | 8.00438 | 144.31639 | 40866 ft | 489 kts | 90° |
| 2026-04-30 06:41 | 8.00400 | 144.38457 | 40866 ft | 489 kts | 90° |
| 2026-04-30 06:41 | 8.00360 | 144.45326 | 40875 ft | 489 kts | 90° |
| 2026-04-30 06:42 | 8.00319 | 144.52191 | 40873 ft | 489 kts | 90° |
| 2026-04-30 06:42 | 8.00276 | 144.59065 | 40869 ft | 489 kts | 90° |
| 2026-04-30 06:43 | 8.00233 | 144.65938 | 40872 ft | 489 kts | 90° |
| 2026-04-30 06:43 | 8.00188 | 144.72796 | 40873 ft | 489 kts | 90° |
| 2026-04-30 06:44 | 8.00142 | 144.79670 | 40867 ft | 489 kts | 90° |
| 2026-04-30 06:44 | 8.00096 | 144.86488 | 40872 ft | 489 kts | 90° |
| 2026-04-30 06:45 | 8.00048 | 144.93345 | 40874 ft | 489 kts | 90° |
| 2026-04-30 06:45 | 7.99999 | 145.00201 | 40863 ft | 488 kts | 89° |
| 2026-04-30 06:46 | 7.99872 | 145.07059 | 40874 ft | 488 kts | 91° |
| 2026-04-30 06:46 | 7.99666 | 145.13920 | 40867 ft | 489 kts | 91° |
| 2026-04-30 06:47 | 7.99466 | 145.20774 | 40872 ft | 489 kts | 91° |
| 2026-04-30 06:47 | 7.99281 | 145.27587 | 40869 ft | 489 kts | 90° |
| 2026-04-30 06:48 | 7.99100 | 145.34443 | 40869 ft | 488 kts | 91° |
| 2026-04-30 06:48 | 7.98919 | 145.41292 | 40864 ft | 488 kts | 90° |
| 2026-04-30 06:49 | 7.98737 | 145.48148 | 40864 ft | 488 kts | 90° |
| 2026-04-30 06:49 | 7.98552 | 145.55005 | 40864 ft | 489 kts | 90° |
| 2026-04-30 06:50 | 7.98366 | 145.61863 | 40868 ft | 489 kts | 91° |
| 2026-04-30 06:50 | 7.98180 | 145.68723 | 40869 ft | 489 kts | 91° |
| 2026-04-30 06:51 | 7.97993 | 145.75548 | 40871 ft | 489 kts | 91° |
| 2026-04-30 06:51 | 7.97803 | 145.82411 | 40870 ft | 489 kts | 90° |
| 2026-04-30 06:52 | 7.97612 | 145.89281 | 40870 ft | 488 kts | 90° |
| 2026-04-30 06:52 | 7.97422 | 145.96131 | 40869 ft | 488 kts | 90° |
| 2026-04-30 06:53 | 7.97230 | 146.02944 | 40864 ft | 488 kts | 91° |
| 2026-04-30 06:53 | 7.97037 | 146.09788 | 40870 ft | 488 kts | 91° |
| 2026-04-30 06:54 | 7.96843 | 146.16619 | 40864 ft | 487 kts | 90° |
| 2026-04-30 06:54 | 7.96680 | 146.22344 | 40861 ft | 487 kts | 90° |
| 2026-04-30 06:55 | 7.96484 | 146.29177 | 40865 ft | 487 kts | 91° |
| 2026-04-30 06:55 | 7.96287 | 146.35974 | 40864 ft | 487 kts | 90° |
| 2026-04-30 06:56 | 7.96089 | 146.42803 | 40866 ft | 487 kts | 91° |
| 2026-04-30 06:56 | 7.95890 | 146.49630 | 40862 ft | 487 kts | 90° |
| 2026-04-30 06:57 | 7.95689 | 146.56466 | 40866 ft | 487 kts | 91° |
| 2026-04-30 06:57 | 7.95488 | 146.63295 | 40863 ft | 487 kts | 90° |
| 2026-04-30 06:58 | 7.95286 | 146.70125 | 40860 ft | 487 kts | 90° |
| 2026-04-30 06:58 | 7.95082 | 146.76957 | 40860 ft | 487 kts | 90° |
| 2026-04-30 06:59 | 7.94877 | 146.83788 | 40863 ft | 487 kts | 91° |
| 2026-04-30 06:59 | 7.94671 | 146.90581 | 40861 ft | 486 kts | 90° |
| 2026-04-30 07:00 | 7.94465 | 146.97386 | 40857 ft | 485 kts | 90° |
| 2026-04-30 07:00 | 7.94257 | 147.04196 | 40863 ft | 485 kts | 90° |
| 2026-04-30 07:01 | 7.94049 | 147.10994 | 40860 ft | 485 kts | 90° |
| 2026-04-30 07:01 | 7.93841 | 147.17750 | 40857 ft | 484 kts | 90° |
| 2026-04-30 07:02 | 7.93631 | 147.24553 | 40857 ft | 484 kts | 91° |
| 2026-04-30 07:02 | 7.93419 | 147.31340 | 40858 ft | 484 kts | 91° |
| 2026-04-30 07:03 | 7.93206 | 147.38135 | 40854 ft | 484 kts | 91° |
| 2026-04-30 07:03 | 7.92992 | 147.44926 | 40857 ft | 484 kts | 90° |
| 2026-04-30 07:04 | 7.92777 | 147.51715 | 40854 ft | 484 kts | 90° |
| 2026-04-30 07:04 | 7.92562 | 147.58510 | 40858 ft | 484 kts | 90° |
| 2026-04-30 07:05 | 7.92238 | 147.68642 | 40856 ft | 483 kts | 90° |
| 2026-04-30 07:05 | 7.92020 | 147.75413 | 40856 ft | 483 kts | 91° |
| 2026-04-30 07:06 | 7.91801 | 147.82189 | 40857 ft | 483 kts | 91° |
| 2026-04-30 07:06 | 7.91581 | 147.88956 | 40857 ft | 483 kts | 91° |
| 2026-04-30 07:07 | 7.91359 | 147.95729 | 40858 ft | 482 kts | 90° |
| 2026-04-30 07:07 | 7.91137 | 148.02508 | 40857 ft | 482 kts | 91° |
| 2026-04-30 07:08 | 7.90913 | 148.09265 | 40859 ft | 482 kts | 91° |
| 2026-04-30 07:08 | 7.90691 | 148.15979 | 40860 ft | 482 kts | 91° |
| 2026-04-30 07:09 | 7.90466 | 148.22735 | 40857 ft | 482 kts | 91° |
| 2026-04-30 07:09 | 7.90239 | 148.29494 | 40857 ft | 481 kts | 91° |
| 2026-04-30 07:10 | 7.90012 | 148.36244 | 40857 ft | 481 kts | 90° |
| 2026-04-30 07:10 | 7.89784 | 148.42998 | 40857 ft | 481 kts | 90° |
| 2026-04-30 07:11 | 7.89557 | 148.49707 | 40855 ft | 481 kts | 91° |
| 2026-04-30 07:11 | 7.89326 | 148.56471 | 40857 ft | 482 kts | 91° |
| 2026-04-30 07:12 | 7.89094 | 148.63225 | 40855 ft | 482 kts | 91° |
| 2026-04-30 07:12 | 7.88863 | 148.69930 | 40857 ft | 481 kts | 91° |
| 2026-04-30 07:13 | 7.88629 | 148.76695 | 40857 ft | 481 kts | 91° |
| 2026-04-30 07:13 | 7.88394 | 148.83453 | 40854 ft | 482 kts | 91° |
| 2026-04-30 07:14 | 7.88157 | 148.90224 | 40852 ft | 482 kts | 91° |
| 2026-04-30 07:14 | 7.87921 | 148.96948 | 40856 ft | 482 kts | 92° |
| 2026-04-30 07:15 | 7.87683 | 149.03716 | 40858 ft | 482 kts | 92° |
| 2026-04-30 07:15 | 7.87444 | 149.10480 | 40853 ft | 482 kts | 92° |
| 2026-04-30 07:16 | 7.87203 | 149.17247 | 40854 ft | 482 kts | 92° |
| 2026-04-30 07:16 | 7.86961 | 149.24017 | 40855 ft | 482 kts | 92° |
| 2026-04-30 07:17 | 7.86718 | 149.30782 | 40855 ft | 482 kts | 92° |
| 2026-04-30 07:18 | 7.86351 | 149.40930 | 40852 ft | 483 kts | 92° |
| 2026-04-30 07:18 | 7.86107 | 149.47655 | 40855 ft | 483 kts | 92° |
| 2026-04-30 07:19 | 7.85861 | 149.54418 | 40853 ft | 483 kts | 92° |
| 2026-04-30 07:19 | 7.85613 | 149.61182 | 40855 ft | 482 kts | 92° |
| 2026-04-30 07:20 | 7.85365 | 149.67942 | 40856 ft | 481 kts | 92° |
| 2026-04-30 07:20 | 7.85116 | 149.74693 | 40855 ft | 481 kts | 93° |
| 2026-04-30 07:21 | 7.84865 | 149.81441 | 40857 ft | 481 kts | 92° |
| 2026-04-30 07:21 | 7.84615 | 149.88153 | 40855 ft | 481 kts | 92° |
| 2026-04-30 07:22 | 7.84236 | 149.98282 | 40858 ft | 481 kts | 93° |
| 2026-04-30 07:22 | 7.83982 | 150.05035 | 40856 ft | 481 kts | 93° |
| 2026-04-30 07:23 | 7.83728 | 150.11740 | 40858 ft | 481 kts | 93° |
| 2026-04-30 07:23 | 7.83472 | 150.18487 | 40857 ft | 482 kts | 93° |
| 2026-04-30 07:24 | 7.83213 | 150.25259 | 40855 ft | 482 kts | 93° |
| 2026-04-30 07:24 | 7.82954 | 150.32021 | 40855 ft | 483 kts | 93° |
| 2026-04-30 07:25 | 7.82694 | 150.38786 | 40855 ft | 483 kts | 93° |
| 2026-04-30 07:25 | 7.82180 | 150.45532 | 40856 ft | 482 kts | 97° |
| 2026-04-30 07:26 | 7.81506 | 150.52207 | 40856 ft | 483 kts | 97° |
| 2026-04-30 07:26 | 7.80814 | 150.58999 | 40855 ft | 489 kts | 97° |
| 2026-04-30 07:27 | 7.80112 | 150.65865 | 40852 ft | 492 kts | 97° |
| 2026-04-30 07:27 | 7.79412 | 150.72705 | 40855 ft | 494 kts | 97° |
| 2026-04-30 07:28 | 7.78705 | 150.79602 | 40852 ft | 494 kts | 97° |
| 2026-04-30 07:28 | 7.77997 | 150.86492 | 40854 ft | 494 kts | 97° |
| 2026-04-30 07:29 | 7.77288 | 150.93384 | 40853 ft | 494 kts | 97° |
| 2026-04-30 07:29 | 7.76578 | 151.00279 | 40852 ft | 494 kts | 97° |
| 2026-04-30 07:30 | 7.75512 | 151.10609 | 40854 ft | 493 kts | 97° |
| 2026-04-30 07:31 | 7.74801 | 151.17480 | 40859 ft | 493 kts | 97° |
| 2026-04-30 07:31 | 7.74089 | 151.24353 | 40851 ft | 492 kts | 97° |
| 2026-04-30 07:32 | 7.73376 | 151.31221 | 40851 ft | 492 kts | 97° |
| 2026-04-30 07:32 | 7.72663 | 151.38085 | 40849 ft | 492 kts | 97° |
| 2026-04-30 07:33 | 7.71949 | 151.44946 | 40852 ft | 492 kts | 97° |
| 2026-04-30 07:33 | 7.71233 | 151.51808 | 40848 ft | 492 kts | 97° |
| 2026-04-30 07:34 | 7.70521 | 151.58626 | 40850 ft | 492 kts | 97° |
| 2026-04-30 07:34 | 7.69804 | 151.65488 | 40847 ft | 491 kts | 97° |
| 2026-04-30 07:35 | 7.69086 | 151.72343 | 40841 ft | 491 kts | 97° |
| 2026-04-30 07:35 | 7.68367 | 151.79193 | 40843 ft | 491 kts | 97° |
| 2026-04-30 07:36 | 7.67648 | 151.86041 | 40840 ft | 491 kts | 97° |
| 2026-04-30 07:36 | 7.66933 | 151.92834 | 40850 ft | 490 kts | 97° |
| 2026-04-30 07:37 | 7.66213 | 151.99672 | 40844 ft | 489 kts | 97° |
| 2026-04-30 07:37 | 7.65493 | 152.06492 | 40847 ft | 489 kts | 97° |
| 2026-04-30 07:38 | 7.64772 | 152.13314 | 40847 ft | 489 kts | 97° |
| 2026-04-30 07:38 | 7.64051 | 152.20121 | 40846 ft | 489 kts | 97° |
| 2026-04-30 07:39 | 7.63328 | 152.26937 | 40848 ft | 489 kts | 97° |
| 2026-04-30 07:39 | 7.62727 | 152.32601 | 40845 ft | 489 kts | 97° |
| 2026-04-30 07:40 | 7.61884 | 152.40526 | 40849 ft | 489 kts | 97° |
| 2026-04-30 07:40 | 7.61158 | 152.47345 | 40853 ft | 489 kts | 97° |
| 2026-04-30 07:41 | 7.60549 | 152.53053 | 40856 ft | 489 kts | 97° |
| 2026-04-30 07:41 | 7.59826 | 152.59821 | 40860 ft | 488 kts | 97° |
| 2026-04-30 07:42 | 7.59099 | 152.66620 | 40855 ft | 488 kts | 97° |
| 2026-04-30 07:42 | 7.58370 | 152.73426 | 40861 ft | 488 kts | 97° |
| 2026-04-30 07:43 | 7.57640 | 152.80230 | 40866 ft | 488 kts | 97° |
| 2026-04-30 07:43 | 7.56910 | 152.87026 | 40860 ft | 488 kts | 96° |
| 2026-04-30 07:44 | 7.56179 | 152.93825 | 40862 ft | 488 kts | 97° |
| 2026-04-30 07:44 | 7.55446 | 153.00625 | 40867 ft | 488 kts | 97° |
| 2026-04-30 07:45 | 7.54716 | 153.07385 | 40873 ft | 488 kts | 97° |
| 2026-04-30 07:45 | 7.53982 | 153.14184 | 40863 ft | 488 kts | 96° |
| 2026-04-30 07:46 | 7.53245 | 153.20992 | 40868 ft | 488 kts | 96° |
| 2026-04-30 07:46 | 7.52507 | 153.27803 | 40869 ft | 488 kts | 96° |
| 2026-04-30 07:47 | 7.51769 | 153.34598 | 40868 ft | 488 kts | 96° |
| 2026-04-30 07:47 | 7.51034 | 153.41359 | 40869 ft | 488 kts | 97° |
| 2026-04-30 07:48 | 7.50294 | 153.48157 | 40871 ft | 488 kts | 96° |
| 2026-04-30 07:48 | 7.49552 | 153.54962 | 40865 ft | 488 kts | 96° |
| 2026-04-30 07:49 | 7.48809 | 153.61770 | 40874 ft | 488 kts | 96° |
| 2026-04-30 07:49 | 7.48066 | 153.68572 | 40870 ft | 489 kts | 97° |
| 2026-04-30 07:50 | 7.47320 | 153.75383 | 40880 ft | 489 kts | 96° |
| 2026-04-30 07:50 | 7.46578 | 153.82144 | 40872 ft | 488 kts | 96° |
| 2026-04-30 07:51 | 7.45831 | 153.88951 | 40872 ft | 488 kts | 96° |
| 2026-04-30 07:51 | 7.45083 | 153.95752 | 40879 ft | 488 kts | 96° |
| 2026-04-30 07:52 | 7.44333 | 154.02566 | 40868 ft | 488 kts | 96° |
| 2026-04-30 07:52 | 7.43582 | 154.09370 | 40881 ft | 489 kts | 96° |
| 2026-04-30 07:53 | 7.42834 | 154.16146 | 40881 ft | 490 kts | 96° |
| 2026-04-30 07:53 | 7.42079 | 154.22973 | 40884 ft | 490 kts | 96° |
| 2026-04-30 07:54 | 7.41324 | 154.29794 | 40878 ft | 490 kts | 96° |
| 2026-04-30 07:54 | 7.40567 | 154.36617 | 40886 ft | 490 kts | 96° |
| 2026-04-30 07:55 | 7.39815 | 154.43392 | 40881 ft | 481 kts | 96° |
| 2026-04-30 07:55 | 7.39073 | 154.50062 | 40889 ft | 478 kts | 96° |
| 2026-04-30 07:56 | 7.38333 | 154.56709 | 40876 ft | 478 kts | 96° |
| 2026-04-30 07:56 | 7.37596 | 154.63323 | 40872 ft | 478 kts | 96° |
| 2026-04-30 07:57 | 7.36853 | 154.69979 | 40871 ft | 478 kts | 96° |
| 2026-04-30 07:57 | 7.36108 | 154.76638 | 40884 ft | 479 kts | 96° |
| 2026-04-30 07:58 | 7.35362 | 154.83302 | 40885 ft | 479 kts | 96° |
| 2026-04-30 07:58 | 7.34614 | 154.89972 | 40888 ft | 479 kts | 96° |
| 2026-04-30 07:59 | 7.33866 | 154.96635 | 40884 ft | 479 kts | 96° |
| 2026-04-30 07:59 | 7.33115 | 155.03315 | 40882 ft | 478 kts | 96° |
| 2026-04-30 08:00 | 7.31995 | 155.13266 | 40885 ft | 478 kts | 96° |
| 2026-04-30 08:00 | 7.31244 | 155.19926 | 40882 ft | 478 kts | 96° |
| 2026-04-30 08:01 | 7.30493 | 155.26578 | 40883 ft | 478 kts | 96° |
| 2026-04-30 08:01 | 7.29740 | 155.33236 | 40876 ft | 478 kts | 96° |
| 2026-04-30 08:02 | 7.28609 | 155.43220 | 40886 ft | 478 kts | 96° |
| 2026-04-30 08:03 | 7.27102 | 155.56489 | 40874 ft | 478 kts | 96° |
| 2026-04-30 08:04 | 7.26344 | 155.63152 | 40871 ft | 478 kts | 96° |
| 2026-04-30 08:04 | 7.25585 | 155.69816 | 40872 ft | 479 kts | 96° |
| 2026-04-30 08:05 | 7.24829 | 155.76440 | 40874 ft | 479 kts | 96° |
| 2026-04-30 08:05 | 7.24067 | 155.83114 | 40877 ft | 479 kts | 96° |
| 2026-04-30 08:06 | 7.23305 | 155.89778 | 40875 ft | 479 kts | 96° |
| 2026-04-30 08:06 | 7.22542 | 155.96447 | 40885 ft | 479 kts | 96° |
| 2026-04-30 08:07 | 7.21784 | 156.03049 | 40502 ft | 474 kts | 96° |
| 2026-04-30 08:07 | 7.21407 | 156.06340 | 39843 ft | 474 kts | 96° |
| 2026-04-30 08:07 | 7.21028 | 156.09643 | 39294 ft | 474 kts | 96° |
| 2026-04-30 08:07 | 7.20647 | 156.12958 | 39033 ft | 479 kts | 96° |
| 2026-04-30 08:08 | 7.20265 | 156.16281 | 38500 ft | 476 kts | 96° |
| 2026-04-30 08:08 | 7.19883 | 156.19595 | 37790 ft | 476 kts | 97° |
| 2026-04-30 08:08 | 7.19502 | 156.22910 | 37121 ft | 475 kts | 97° |
| 2026-04-30 08:08 | 7.19120 | 156.26220 | 36437 ft | 475 kts | 97° |
| 2026-04-30 08:09 | 7.18739 | 156.29529 | 35743 ft | 476 kts | 97° |
| 2026-04-30 08:09 | 7.18361 | 156.32799 | 35029 ft | 477 kts | 97° |
| 2026-04-30 08:09 | 7.17976 | 156.36137 | 34217 ft | 481 kts | 97° |
| 2026-04-30 08:09 | 7.17588 | 156.39500 | 33322 ft | 486 kts | 97° |
| 2026-04-30 08:10 | 7.17195 | 156.42894 | 32432 ft | 489 kts | 97° |
| 2026-04-30 08:10 | 7.16801 | 156.46309 | 31541 ft | 492 kts | 97° |
| 2026-04-30 08:10 | 7.16403 | 156.49747 | 30619 ft | 496 kts | 97° |
| 2026-04-30 08:10 | 7.16001 | 156.53217 | 29602 ft | 500 kts | 98° |
| 2026-04-30 08:11 | 7.15596 | 156.56703 | 28689 ft | 500 kts | 97° |
| 2026-04-30 08:11 | 7.15195 | 156.60163 | 28015 ft | 495 kts | 97° |
| 2026-04-30 08:11 | 7.14803 | 156.63544 | 27341 ft | 491 kts | 97° |
| 2026-04-30 08:11 | 7.14408 | 156.66945 | 26657 ft | 487 kts | 97° |
| 2026-04-30 08:12 | 7.14016 | 156.70320 | 25970 ft | 484 kts | 97° |
| 2026-04-30 08:12 | 7.13627 | 156.73670 | 25298 ft | 481 kts | 97° |
| 2026-04-30 08:12 | 7.13239 | 156.77002 | 24612 ft | 477 kts | 97° |
| 2026-04-30 08:12 | 7.12854 | 156.80307 | 23941 ft | 474 kts | 97° |
| 2026-04-30 08:13 | 7.12471 | 156.83599 | 23231 ft | 472 kts | 97° |
| 2026-04-30 08:13 | 7.12090 | 156.86863 | 22496 ft | 467 kts | 97° |
| 2026-04-30 08:13 | 7.11713 | 156.90094 | 21813 ft | 462 kts | 97° |
| 2026-04-30 08:13 | 7.11345 | 156.93247 | 21157 ft | 457 kts | 97° |
| 2026-04-30 08:14 | 7.10977 | 156.96405 | 20501 ft | 452 kts | 97° |
| 2026-04-30 08:14 | 7.10610 | 156.99539 | 19825 ft | 449 kts | 97° |
| 2026-04-30 08:14 | 7.10247 | 157.02646 | 19160 ft | 445 kts | 97° |
| 2026-04-30 08:14 | 7.09886 | 157.05731 | 18485 ft | 442 kts | 97° |
| 2026-04-30 08:15 | 7.09527 | 157.08799 | 17751 ft | 440 kts | 97° |
| 2026-04-30 08:15 | 7.09172 | 157.11837 | 17049 ft | 435 kts | 97° |
| 2026-04-30 08:15 | 7.08820 | 157.14848 | 16367 ft | 431 kts | 97° |
| 2026-04-30 08:15 | 7.08470 | 157.17827 | 15693 ft | 426 kts | 97° |
| 2026-04-30 08:16 | 7.08129 | 157.20738 | 15030 ft | 422 kts | 97° |
| 2026-04-30 08:16 | 7.07786 | 157.23658 | 14359 ft | 418 kts | 97° |
| 2026-04-30 08:16 | 7.07446 | 157.26555 | 13683 ft | 415 kts | 97° |
| 2026-04-30 08:16 | 7.07109 | 157.29425 | 12956 ft | 411 kts | 97° |
| 2026-04-30 08:17 | 7.06775 | 157.32265 | 12278 ft | 405 kts | 97° |
| 2026-04-30 08:17 | 7.06446 | 157.35053 | 11619 ft | 399 kts | 97° |
| 2026-04-30 08:17 | 7.06122 | 157.37811 | 11050 ft | 392 kts | 97° |
| 2026-04-30 08:17 | 7.05809 | 157.40469 | 10922 ft | 372 kts | 97° |
| 2026-04-30 08:18 | 7.05512 | 157.42988 | 10821 ft | 354 kts | 97° |
| 2026-04-30 08:18 | 7.05230 | 157.45387 | 10713 ft | 336 kts | 97° |
| 2026-04-30 08:18 | 7.04964 | 157.47639 | 10577 ft | 322 kts | 97° |
| 2026-04-30 08:18 | 7.04706 | 157.49828 | 10437 ft | 308 kts | 97° |
| 2026-04-30 08:19 | 7.04458 | 157.51928 | 10299 ft | 296 kts | 97° |
| 2026-04-30 08:19 | 7.04220 | 157.53945 | 10079 ft | 287 kts | 97° |
| 2026-04-30 08:19 | 7.03985 | 157.55932 | 9733 ft | 285 kts | 97° |
| 2026-04-30 08:19 | 7.03748 | 157.57940 | 9384 ft | 291 kts | 97° |
| 2026-04-30 08:20 | 7.03508 | 157.59971 | 9049 ft | 292 kts | 97° |
| 2026-04-30 08:20 | 7.03269 | 157.61993 | 8725 ft | 289 kts | 97° |
| 2026-04-30 08:20 | 7.03036 | 157.63966 | 8422 ft | 287 kts | 97° |
| 2026-04-30 08:20 | 7.02801 | 157.65958 | 8104 ft | 286 kts | 97° |
| 2026-04-30 08:21 | 7.02566 | 157.67939 | 7778 ft | 284 kts | 97° |
| 2026-04-30 08:21 | 7.02333 | 157.69907 | 7449 ft | 282 kts | 97° |
| 2026-04-30 08:21 | 7.02114 | 157.71862 | 7228 ft | 281 kts | 96° |
| 2026-04-30 08:21 | 7.01921 | 157.73812 | 6936 ft | 280 kts | 96° |
| 2026-04-30 08:22 | 7.01731 | 157.75753 | 6613 ft | 278 kts | 96° |
| 2026-04-30 08:22 | 7.01540 | 157.77681 | 6295 ft | 276 kts | 96° |
| 2026-04-30 08:22 | 7.01351 | 157.79574 | 5965 ft | 275 kts | 96° |
| 2026-04-30 08:22 | 7.01160 | 157.81480 | 5643 ft | 273 kts | 96° |
| 2026-04-30 08:23 | 7.00969 | 157.83374 | 5322 ft | 271 kts | 96° |
| 2026-04-30 08:23 | 7.00779 | 157.85252 | 5009 ft | 269 kts | 96° |
| 2026-04-30 08:23 | 7.00591 | 157.87119 | 4686 ft | 268 kts | 96° |
| 2026-04-30 08:23 | 7.00403 | 157.88976 | 4438 ft | 266 kts | 96° |
| 2026-04-30 08:24 | 7.00216 | 157.90825 | 4177 ft | 265 kts | 96° |
| 2026-04-30 08:24 | 7.00029 | 157.92666 | 3870 ft | 264 kts | 95° |
| 2026-04-30 08:24 | 6.99844 | 157.94498 | 3554 ft | 262 kts | 95° |
| 2026-04-30 08:24 | 6.99663 | 157.96290 | 3294 ft | 258 kts | 96° |
| 2026-04-30 08:25 | 6.99486 | 157.98033 | 3200 ft | 243 kts | 96° |
| 2026-04-30 08:25 | 6.99319 | 157.99678 | 3100 ft | 229 kts | 96° |
| 2026-04-30 08:25 | 6.99161 | 158.01233 | 3006 ft | 218 kts | 96° |
| 2026-04-30 08:25 | 6.99011 | 158.02707 | 2905 ft | 206 kts | 96° |
| 2026-04-30 08:26 | 6.98870 | 158.04100 | 2811 ft | 194 kts | 96° |
| 2026-04-30 08:26 | 6.98734 | 158.05436 | 2729 ft | 191 kts | 96° |
| 2026-04-30 08:26 | 6.98607 | 158.06769 | 2638 ft | 191 kts | 94° |
| 2026-04-30 08:26 | 6.98562 | 158.08110 | 2407 ft | 192 kts | 90° |
| 2026-04-30 08:27 | 6.98554 | 158.09453 | 2139 ft | 192 kts | 90° |
| 2026-04-30 08:27 | 6.98553 | 158.10767 | 1923 ft | 187 kts | 90° |
| 2026-04-30 08:27 | 6.98552 | 158.12031 | 1656 ft | 174 kts | 90° |
| 2026-04-30 08:27 | 6.98547 | 158.13197 | 1414 ft | 161 kts | 90° |
| 2026-04-30 08:28 | 6.98541 | 158.14278 | 1220 ft | 148 kts | 90° |
| 2026-04-30 08:28 | 6.98535 | 158.15278 | 1023 ft | 137 kts | 89° |
| 2026-04-30 08:28 | 6.98531 | 158.16217 | 846 ft | 133 kts | 89° |
| 2026-04-30 08:28 | 6.98521 | 158.17188 | 500 ft | 140 kts | 90° |
| 2026-04-30 08:29 | 6.98489 | 158.18148 | 285 ft | 133 kts | 92° |
| 2026-04-30 08:29 | 6.98477 | 158.19077 | 188 ft | 137 kts | 86° |
| 2026-04-30 08:29 | 6.98524 | 158.20025 | 53 ft | 134 kts | 95° |
| 2026-04-30 08:29 | 6.98514 | 158.20739 | 27 ft | 45 kts | 89° |
| 2026-04-30 08:30 | 6.98514 | 158.20809 | 27 ft | 2 kts | 90° |
| 2026-04-30 08:30 | 6.98514 | 158.20826 | 26 ft | 4 kts | 90° |
| 2026-04-30 08:30 | 6.98514 | 158.20862 | 27 ft | 7 kts | 90° |
| 2026-04-30 08:30 | 6.98514 | 158.20932 | 28 ft | 14 kts | 90° |
| 2026-04-30 08:31 | 6.98514 | 158.21037 | 28 ft | 16 kts | 90° |
| 2026-04-30 08:31 | 6.98531 | 158.21125 | 29 ft | 0 kts | 80° |
| 2026-04-30 08:31 | 6.98528 | 158.21129 | 28 ft | 2 kts | 109° |
| 2026-04-30 08:31 | 6.98517 | 158.21131 | 27 ft | 1 kts | 176° |
| 2026-04-30 08:32 | 6.98511 | 158.21123 | 28 ft | 3 kts | 232° |
| 2026-04-30 08:32 | 6.98510 | 158.21091 | 29 ft | 7 kts | 267° |
| 2026-04-30 08:32 | 6.98510 | 158.21002 | 28 ft | 17 kts | 270° |
| 2026-04-30 08:32 | 6.98512 | 158.20871 | 27 ft | 20 kts | 271° |
| 2026-04-30 08:33 | 6.98514 | 158.20718 | 27 ft | 23 kts | 270° |
| 2026-04-30 08:33 | 6.98516 | 158.20551 | 30 ft | 25 kts | 270° |
| 2026-04-30 08:33 | 6.98494 | 158.20382 | 25 ft | 18 kts | 237° |
| 2026-04-30 08:33 | 6.98431 | 158.20358 | 26 ft | 8 kts | 181° |
| 2026-04-30 08:34 | 6.98361 | 158.20357 | 28 ft | 12 kts | 181° |
| 2026-04-30 08:34 | 6.98281 | 158.20373 | 26 ft | 11 kts | 141° |
| 2026-04-30 08:34 | 6.98222 | 158.20393 | 25 ft | 9 kts | 175° |
| 2026-04-30 08:34 | 6.98190 | 158.20395 | 24 ft | 0 kts | 177° |